createdAt,value
2022-11-15T00:03:03.272Z,8
2022-11-15T00:13:09.181Z,6
2022-11-15T00:23:13.412Z,6
2022-11-15T00:33:18.792Z,7
2022-11-15T00:43:25.213Z,4
2022-11-15T00:53:31.286Z,5
2022-11-15T01:03:37.085Z,8
2022-11-15T01:13:42.682Z,4
2022-11-15T01:23:47.820Z,4
2022-11-15T01:33:53.438Z,5
2022-11-15T01:43:58.728Z,6
2022-11-15T01:54:03.054Z,6
2022-11-15T02:04:10.005Z,4
2022-11-15T02:14:14.672Z,4
2022-11-15T02:24:19.619Z,4
2022-11-15T02:34:24.930Z,6
2022-11-15T02:44:31.630Z,4
2022-11-15T02:54:38.427Z,6
2022-11-15T03:04:43.975Z,5
2022-11-15T03:14:50.748Z,5
2022-11-15T03:25:02.561Z,5
2022-11-15T03:35:02.463Z,4
2022-11-15T03:45:09.022Z,4
2022-11-15T03:55:16.331Z,8
2022-11-15T04:05:23.373Z,7
2022-11-15T04:15:29.714Z,5
2022-11-15T04:25:35.047Z,6
2022-11-15T04:35:39.514Z,6
2022-11-15T04:45:44.449Z,4
2022-11-15T04:55:55.592Z,5
2022-11-15T05:05:57.897Z,8
2022-11-15T05:16:03.755Z,6
2022-11-15T05:26:10.642Z,5
2022-11-15T05:36:17.201Z,5
2022-11-15T05:46:22.955Z,7
2022-11-15T05:56:28.599Z,5
2022-11-15T06:06:33.940Z,6
2022-11-15T06:16:40.683Z,5
2022-11-15T06:26:45.264Z,5
2022-11-15T06:36:59.589Z,6
2022-11-15T06:46:58.281Z,5
2022-11-15T06:57:03.401Z,10
2022-11-15T07:07:08.766Z,5
2022-11-15T07:17:15.096Z,5
2022-11-15T07:27:20.671Z,8
2022-11-15T07:37:26.299Z,6
2022-11-15T07:47:33.483Z,7
2022-11-15T07:57:44.123Z,6
2022-11-15T08:07:43.027Z,6
2022-11-15T08:17:48.807Z,8
2022-11-15T08:27:54.270Z,5
2022-11-15T08:37:58.663Z,8
2022-11-15T08:48:05.772Z,4
2022-11-15T08:58:10.383Z,4
2022-11-15T09:08:48.697Z,6
2022-11-15T09:15:42.457Z,4
2022-11-15T09:25:52.651Z,6
2022-11-15T09:35:54.172Z,6
2022-11-15T09:45:58.722Z,5
2022-11-15T09:56:53.539Z,8
2022-11-15T10:06:59.143Z,4
2022-11-15T10:17:04.478Z,6
2022-11-15T10:27:10.259Z,9
2022-11-15T10:37:21.242Z,6
2022-11-15T10:47:40.146Z,15
2022-11-15T10:57:33.423Z,6
2022-11-15T11:07:40.715Z,5
2022-11-15T11:17:47.218Z,8
2022-11-15T11:27:51.446Z,8
2022-11-15T11:37:58.122Z,6
2022-11-15T11:48:03.601Z,6
2022-11-15T11:58:10.107Z,6
2022-11-15T12:08:17.331Z,6
2022-11-15T12:18:23.938Z,5
2022-11-15T12:28:29.445Z,6
2022-11-15T12:38:35.675Z,6
2022-11-15T12:48:41.242Z,7
2022-11-15T12:58:48.004Z,5
2022-11-15T13:08:52.837Z,6
2022-11-15T13:18:57.490Z,8
2022-11-15T13:29:05.019Z,6
2022-11-15T13:39:10.610Z,9
2022-11-15T13:49:17.267Z,11
2022-11-15T13:59:22.164Z,11
2022-11-15T14:09:26.580Z,7
2022-11-15T14:19:30.971Z,7
2022-11-15T14:29:36.532Z,19
2022-11-15T14:39:41.902Z,9
2022-11-15T14:49:48.133Z,16
2022-11-15T14:59:54.775Z,8
2022-11-15T15:10:39.828Z,7
2022-11-15T15:20:32.852Z,18
2022-11-15T15:30:37.556Z,14
2022-11-15T15:40:44.937Z,20
2022-11-15T15:50:52.705Z,23
2022-11-15T16:00:57.997Z,15
2022-11-15T16:11:05.162Z,15
2022-11-15T16:21:10.224Z,15
2022-11-15T16:31:16.121Z,11
2022-11-15T16:41:22.160Z,14
2022-11-15T16:51:29.049Z,20
2022-11-15T17:01:36.729Z,15
2022-11-15T17:11:42.142Z,14
2022-11-15T17:21:48.578Z,15
2022-11-15T17:31:55.008Z,23
2022-11-15T17:42:00.555Z,14
2022-11-15T17:52:06.574Z,14
2022-11-15T18:02:13.337Z,31
2022-11-15T18:12:18.858Z,15
2022-11-15T18:22:26.585Z,18
2022-11-15T18:32:35.625Z,11
2022-11-15T18:42:39.118Z,18
2022-11-15T18:54:47.743Z,10
2022-11-15T19:04:53.541Z,11
2022-11-15T19:14:59.162Z,10
2022-11-15T19:25:04.444Z,10
2022-11-15T19:35:09.610Z,9
2022-11-15T19:45:14.532Z,11
2022-11-15T19:55:21.304Z,9
2022-11-15T20:05:25.557Z,9
2022-11-15T20:15:31.589Z,11
2022-11-15T20:25:38.142Z,9
2022-11-15T20:35:43.338Z,9
2022-11-15T20:45:48.794Z,11
2022-11-15T20:55:56.263Z,13
2022-11-15T21:06:00.442Z,11
2022-11-15T21:16:05.890Z,19
2022-11-15T21:26:13.094Z,31
2022-11-15T21:36:20.530Z,21
2022-11-15T21:46:27.445Z,12
2022-11-15T21:56:32.053Z,13
2022-11-15T22:06:37.170Z,11
2022-11-15T22:16:41.164Z,12
2022-11-15T22:26:53.294Z,10
2022-11-15T22:37:20.858Z,11
2022-11-15T22:47:14.085Z,7
2022-11-15T22:57:20.367Z,8
2022-11-15T23:07:25.549Z,10
2022-11-15T23:17:31.485Z,8
2022-11-15T23:27:38.058Z,8
2022-11-15T23:37:42.795Z,11
2022-11-15T23:47:48.878Z,10
2022-11-15T23:57:55.279Z,7
